Time;durP1;ratioP1;P1;durP2;ratioP2;P2;SDS_P1;SDS_P2;PMS_P1;PMS_P2;Temp;Humidity;BMP_temperature;BMP_pressure;BME280_temperature;BME280_humidity;BME280_pressure;Samples;Min_cycle;Max_cycle;Signal;HPM_P1;HPM_P2
2022/05/02 00:06:35;;;;;;;34.40;17.00;;;;;;;5.35;59.25;99784.82;425320;1287;141807;-60
2022/05/02 00:16:41;;;;;;;24.60;18.50;;;;;;;5.20;59.87;99783.48;427370;1287;141303;-61
2022/05/02 00:26:46;;;;;;;27.00;16.40;;;;;;;5.05;60.30;99780.23;426384;1287;142487;-61
2022/05/02 00:36:52;;;;;;;31.40;20.10;;;;;;;4.93;60.67;99778.42;426498;1287;142514;-60
2022/05/02 00:46:59;;;;;;;28.50;17.60;;;;;;;4.77;60.86;99770.33;425237;1287;141942;-60
2022/05/02 00:57:07;;;;;;;32.70;19.00;;;;;;;4.62;61.16;99773.13;427246;1287;145986;-61
2022/05/02 01:07:19;;;;;;;29.90;18.60;;;;;;;4.48;61.68;99772.94;426821;1287;141821;-60
2022/05/02 01:17:25;;;;;;;25.10;16.80;;;;;;;4.36;61.92;99778.02;426560;1287;142064;-61
2022/05/02 01:27:31;;;;;;;26.50;17.10;;;;;;;4.26;62.49;99771.98;424922;1287;142597;-62
2022/05/02 01:37:36;;;;;;;26.50;18.60;;;;;;;4.14;62.80;99765.64;425664;1287;143196;-61
2022/05/02 01:47:42;;;;;;;32.70;19.20;;;;;;;4.01;63.09;99765.90;425442;1287;143356;-62
2022/05/02 01:57:48;;;;;;;37.50;20.00;;;;;;;3.90;63.43;99760.21;426144;1287;212332;-61
2022/05/02 02:07:54;;;;;;;30.10;19.50;;;;;;;3.81;63.78;99757.91;425527;1287;142500;-61
2022/05/02 02:18:00;;;;;;;30.30;19.70;;;;;;;3.71;64.21;99756.66;425489;1287;141737;-62
2022/05/02 02:28:07;;;;;;;30.60;18.30;;;;;;;3.62;64.17;99755.23;425673;1287;142747;-62
2022/05/02 02:38:13;;;;;;;37.00;19.10;;;;;;;3.51;64.57;99752.80;426569;1287;141784;-62
2022/05/02 02:48:19;;;;;;;35.90;20.60;;;;;;;3.40;64.95;99751.25;426089;1287;144046;-62
2022/05/02 02:58:25;;;;;;;32.30;20.80;;;;;;;3.30;65.26;99752.77;425813;1287;142166;-60
2022/05/02 03:08:33;;;;;;;37.20;20.30;;;;;;;3.27;65.39;99748.03;428643;1287;141817;-61
2022/05/02 03:18:39;;;;;;;38.90;22.70;;;;;;;3.26;65.68;99750.30;425681;1287;143026;-61
2022/05/02 03:28:44;;;;;;;37.90;20.70;;;;;;;3.28;65.66;99757.34;425758;1287;142534;-61
2022/05/02 03:38:50;;;;;;;32.90;21.50;;;;;;;3.46;65.75;99753.33;425254;1287;142395;-62
2022/05/02 03:48:57;;;;;;;40.40;25.00;;;;;;;3.86;65.58;99748.91;426133;1286;141773;-63
2022/05/02 03:59:03;;;;;;;42.40;25.50;;;;;;;4.41;65.25;99748.91;426288;1287;142834;-61
2022/05/02 04:09:09;;;;;;;46.20;25.00;;;;;;;5.01;64.69;99745.66;425969;1286;142041;-63
2022/05/02 04:19:15;;;;;;;49.40;28.80;;;;;;;5.65;63.99;99745.56;426278;1287;141772;-60
2022/05/02 04:29:21;;;;;;;47.60;27.20;;;;;;;6.23;63.35;99749.61;427393;1287;142240;-60
2022/05/02 04:39:27;;;;;;;40.00;25.70;;;;;;;7.12;62.81;99752.44;426172;1287;142364;-61
2022/05/02 04:49:33;;;;;;;39.20;25.30;;;;;;;8.07;61.65;99756.86;426889;1287;142467;-61
2022/05/02 04:59:39;;;;;;;42.50;27.10;;;;;;;8.67;60.53;99758.02;427054;1287;143420;-61
2022/05/02 05:09:45;;;;;;;44.80;26.40;;;;;;;13.80;58.23;99755.20;427429;1287;142329;-64
2022/05/02 05:20:02;;;;;;;39.10;27.00;;;;;;;22.50;47.23;99740.39;427998;1287;142645;-62
2022/05/02 05:30:10;;;;;;;32.70;22.20;;;;;;;29.14;37.79;99731.43;430884;1286;141547;-62
2022/05/02 05:40:25;;;;;;;21.60;17.10;;;;;;;34.34;30.54;99723.98;428323;1287;140641;-63
2022/05/02 05:50:34;;;;;;;30.20;16.20;;;;;;;37.83;25.35;99708.89;441664;1285;142597;-63
2022/05/02 06:00:45;;;;;;;8.30;6.20;;;;;;;40.42;21.02;99715.93;429492;1287;142285;-63
2022/05/02 06:10:52;;;;;;;11.30;6.50;;;;;;;42.83;17.69;99714.60;426157;1287;151196;-66
2022/05/02 06:21:01;;;;;;;6.70;5.30;;;;;;;45.15;15.67;99711.02;425464;1287;141796;-63
2022/05/02 06:31:12;;;;;;;6.40;4.30;;;;;;;46.72;13.90;99708.60;428655;1286;141566;-69
2022/05/02 06:41:29;;;;;;;5.40;4.70;;;;;;;47.62;12.66;99711.62;425978;1287;142796;-70
2022/05/02 06:51:39;;;;;;;5.00;4.20;;;;;;;49.23;11.51;99714.42;426924;1287;141903;-70
2022/05/02 07:01:50;;;;;;;10.10;4.90;;;;;;;48.37;10.60;99715.55;428105;1286;140060;-61
2022/05/02 07:12:06;;;;;;;6.60;5.40;;;;;;;46.91;10.55;99718.02;426322;1287;141468;-58
2022/05/02 07:22:12;;;;;;;9.00;5.60;;;;;;;46.73;10.28;99713.34;426442;1286;142035;-59
2022/05/02 07:32:22;;;;;;;7.70;6.90;;;;;;;49.43;9.88;99716.69;430055;1287;141166;-59
2022/05/02 07:42:30;;;;;;;9.70;8.80;;;;;;;51.20;9.22;99711.19;428682;1286;141387;-59
2022/05/02 07:52:40;;;;;;;6.80;6.20;;;;;;;50.91;8.51;99707.77;428196;1286;140480;-59
2022/05/02 08:02:47;;;;;;;6.90;4.50;;;;;;;47.56;9.23;99698.10;427621;1286;141554;-59
2022/05/02 08:12:58;;;;;;;5.10;3.90;;;;;;;46.69;9.20;99698.67;427532;1287;140702;-58
2022/05/02 08:33:52;;;;;;;15.40;4.80;;;;;;;33.88;12.47;99697.67;425870;1287;145251;-58
2022/05/02 08:44:32;;;;;;;3.70;2.70;;;;;;;30.93;14.10;99695.09;426888;1286;140950;-59
2022/05/02 08:55:05;;;;;;;5.50;3.90;;;;;;;29.31;15.08;99695.36;427946;1286;142205;-58
2022/05/02 09:05:50;;;;;;;7.10;3.80;;;;;;;28.86;15.73;99689.21;427461;1286;144534;-58
2022/05/02 09:16:33;;;;;;;4.40;3.60;;;;;;;28.95;16.06;99680.06;426751;1287;140829;-59
2022/05/02 09:27:10;;;;;;;8.70;5.50;;;;;;;28.68;16.12;99669.49;426358;1287;143535;-58
2022/05/02 09:37:23;;;;;;;4.50;3.90;;;;;;;27.86;16.66;99659.25;426754;1287;381493;-60
2022/05/02 09:58:26;;;;;;;5.90;3.60;;;;;;;26.26;17.84;99645.77;426030;1287;140663;-58
2022/05/02 10:08:44;;;;;;;6.80;3.90;;;;;;;25.33;18.54;99640.21;427272;1287;144855;-58
2022/05/02 10:19:01;;;;;;;5.60;4.90;;;;;;;24.38;19.15;99631.00;426841;1287;140417;-58
2022/05/02 10:29:45;;;;;;;4.80;3.60;;;;;;;23.49;19.66;99625.70;427013;1287;142674;-58
2022/05/02 10:40:00;;;;;;;3.60;3.30;;;;;;;23.02;20.57;99610.39;427156;1286;145855;-57
2022/05/02 10:50:20;;;;;;;5.60;3.10;;;;;;;22.62;21.14;99603.05;426118;1287;141680;-59
2022/05/02 11:00:28;;;;;;;6.40;4.10;;;;;;;22.67;21.30;99593.52;427243;1286;141218;-57
2022/05/02 11:10:43;;;;;;;7.60;3.10;;;;;;;22.50;21.50;99587.76;427746;1287;142200;-60
2022/05/02 11:20:59;;;;;;;4.60;2.80;;;;;;;22.11;21.69;99587.64;425938;1287;140886;-58
2022/05/02 11:31:17;;;;;;;4.80;2.50;;;;;;;21.92;21.95;99580.14;427139;1287;141089;-58
2022/05/02 11:41:28;;;;;;;4.10;2.60;;;;;;;21.88;22.52;99568.20;430232;1285;141249;-60
2022/05/02 11:51:48;;;;;;;5.50;3.10;;;;;;;21.95;22.29;99557.57;426928;1287;142020;-58
2022/05/02 12:02:03;;;;;;;5.90;2.60;;;;;;;22.46;22.16;99549.68;427519;1287;142278;-58
2022/05/02 12:12:11;;;;;;;2.20;2.00;;;;;;;22.47;21.68;99546.98;427447;1286;142186;-58
2022/05/02 12:22:18;;;;;;;;;;;;;;;22.04;21.93;99546.30;427946;1287;141577;-59
2022/05/02 12:32:28;;;;;;;6.00;4.70;;;;;;;21.70;23.70;99539.67;427438;1287;128093;-58
2022/05/02 12:42:40;;;;;;;8.70;4.30;;;;;;;21.66;24.33;99531.38;426761;1287;141623;-60
2022/05/02 12:52:47;;;;;;;6.20;4.60;;;;;;;21.59;24.79;99516.36;426567;1287;141673;-59
2022/05/02 13:02:55;;;;;;;4.50;4.00;;;;;;;21.14;25.48;99508.28;427390;1287;196814;-59
2022/05/02 13:13:04;;;;;;;6.50;4.40;;;;;;;21.04;25.60;99505.20;427731;1287;140962;-59
2022/05/02 13:23:13;;;;;;;5.40;3.20;;;;;;;20.86;25.98;99497.77;426094;1287;143175;-59
2022/05/02 13:33:27;;;;;;;6.40;3.50;;;;;;;20.95;25.51;99493.36;426486;1286;142141;-59
2022/05/02 13:43:44;;;;;;;6.10;3.60;;;;;;;20.94;25.30;99479.46;426107;1287;140850;-58
2022/05/02 13:53:58;;;;;;;5.70;3.50;;;;;;;20.57;25.43;99474.21;427234;1287;147079;-57
2022/05/02 14:04:17;;;;;;;6.10;4.10;;;;;;;20.43;25.98;99466.90;434273;1286;142161;-58
2022/05/02 14:14:23;;;;;;;8.00;3.40;;;;;;;20.13;26.38;99460.38;426994;1287;142464;-58
2022/05/02 14:24:43;;;;;;;7.10;2.80;;;;;;;19.85;26.84;99457.77;426490;1287;140787;-57
2022/05/02 14:34:49;;;;;;;3.70;3.20;;;;;;;19.82;27.27;99450.98;427095;1287;145169;-59
2022/05/02 14:44:57;;;;;;;4.40;3.20;;;;;;;20.22;26.99;99438.39;424951;1287;141110;-58
2022/05/02 14:55:08;;;;;;;4.60;3.40;;;;;;;20.23;26.92;99425.33;426171;1287;145444;-58
2022/05/02 15:05:16;;;;;;;6.70;3.10;;;;;;;20.12;27.05;99416.80;425909;1287;141417;-58
2022/05/02 15:15:30;;;;;;;;;;;;;;;19.99;27.16;99409.61;426244;1286;141344;-59
2022/05/02 15:25:49;;;;;;;9.10;3.80;;;;;;;20.04;27.71;99405.68;427852;1286;131532;-58
2022/05/02 15:46:20;;;;;;;3.60;3.20;;;;;;;19.97;27.46;99392.55;426514;1287;140074;-57
2022/05/02 15:56:25;;;;;;;3.80;2.90;;;;;;;20.05;27.59;99380.38;428850;1287;140340;-58
2022/05/02 16:06:31;;;;;;;3.20;2.90;;;;;;;20.05;27.27;99379.80;426855;1287;141894;-60
2022/05/02 16:16:46;;;;;;;7.20;3.80;;;;;;;19.95;26.98;99372.39;429193;1286;141485;-57
2022/05/02 16:26:59;;;;;;;4.00;3.30;;;;;;;19.80;26.87;99368.58;424821;1287;143032;-60
2022/05/02 16:37:05;;;;;;;3.20;2.90;;;;;;;19.72;27.02;99366.41;428688;1287;142827;-59
2022/05/02 16:47:11;;;;;;;6.90;2.70;;;;;;;19.28;27.32;99363.41;426148;1287;141359;-58
2022/05/02 16:57:17;;;;;;;10.80;4.60;;;;;;;18.84;28.08;99360.32;426016;1287;142536;-57
2022/05/02 17:07:22;;;;;;;7.80;3.50;;;;;;;18.47;28.83;99362.66;427834;1287;141447;-59
2022/05/02 17:17:34;;;;;;;5.00;3.60;;;;;;;18.33;29.40;99365.61;425701;1287;141256;-64
2022/05/02 17:27:45;;;;;;;4.50;3.70;;;;;;;17.92;30.31;99360.13;426184;1287;141470;-59
2022/05/02 17:38:02;;;;;;;6.20;3.40;;;;;;;17.44;31.22;99364.07;426733;1287;150088;-60
2022/05/02 17:48:13;;;;;;;5.10;3.30;;;;;;;16.93;32.56;99370.22;425091;1286;141546;-57
2022/05/02 17:58:23;;;;;;;5.90;3.80;;;;;;;16.45;33.55;99373.91;426498;1287;141354;-59
2022/05/02 18:08:41;;;;;;;12.40;3.60;;;;;;;15.97;34.33;99379.27;429024;1286;140674;-64
2022/05/02 18:18:57;;;;;;;7.80;3.60;;;;;;;15.57;35.46;99387.40;427545;1287;140812;-62
2022/05/02 18:29:07;;;;;;;12.90;4.10;;;;;;;15.06;37.24;99393.73;426234;1287;140882;-61
2022/05/02 18:39:14;;;;;;;36.60;8.00;;;;;;;14.49;39.05;99398.28;426774;1287;141788;-61
2022/05/02 18:59:48;;;;;;;22.30;7.50;;;;;;;13.53;41.50;99414.61;427394;1287;141883;-64
2022/05/02 19:09:57;;;;;;;13.50;7.40;;;;;;;13.09;42.77;99418.16;426616;1287;141068;-62
2022/05/02 19:20:04;;;;;;;19.80;6.80;;;;;;;12.66;44.02;99419.31;427797;1287;141510;-61
2022/05/02 19:30:14;;;;;;;15.20;7.40;;;;;;;12.23;45.62;99427.07;428086;1286;141064;-62
2022/05/02 19:40:23;;;;;;;23.50;11.00;;;;;;;11.79;47.02;99430.55;424914;1287;141627;-58
2022/05/02 19:50:30;;;;;;;35.10;16.80;;;;;;;11.44;47.77;99431.42;426473;1287;141688;-62
2022/05/02 20:00:36;;;;;;;36.80;20.60;;;;;;;11.09;48.60;99431.38;426625;1287;141555;-60
2022/05/02 20:10:42;;;;;;;42.00;26.20;;;;;;;10.77;49.47;99430.92;425595;1287;141812;-59
2022/05/02 20:20:48;;;;;;;46.90;27.80;;;;;;;10.50;50.28;99425.64;425143;1286;142760;-60
2022/05/02 20:30:54;;;;;;;42.70;27.30;;;;;;;10.24;51.21;99425.04;428720;1274;141841;-60
2022/05/02 20:41:23;;;;;;;44.10;26.10;;;;;;;9.98;52.23;99425.82;426121;1285;143002;-60
2022/05/02 20:51:30;;;;;;;39.20;25.10;;;;;;;9.70;53.27;99425.31;424538;1285;142614;-59
2022/05/02 21:01:36;;;;;;;46.50;26.90;;;;;;;9.40;53.63;99420.35;426070;1285;141266;-59
2022/05/02 21:11:51;;;;;;;58.10;35.50;;;;;;;9.13;54.41;99417.09;426035;1285;141336;-59
2022/05/02 21:22:10;;;;;;;61.20;37.80;;;;;;;8.92;55.02;99409.30;425281;1285;141293;-61
2022/05/02 21:32:21;;;;;;;;;;;;;;;8.73;55.76;99407.63;425491;1285;364767;-59
2022/05/02 21:42:32;;;;;;;63.20;41.00;;;;;;;8.54;56.31;99409.24;427103;1285;131838;-61
2022/05/02 21:52:38;;;;;;;82.20;50.80;;;;;;;8.34;56.97;99411.05;426102;1285;141207;-62
2022/05/02 22:02:44;;;;;;;62.40;42.70;;;;;;;8.10;57.66;99407.38;427093;1285;140961;-64
2022/05/02 22:12:50;;;;;;;62.80;40.80;;;;;;;7.86;58.25;99405.88;425941;1285;142525;-62
2022/05/02 22:22:56;;;;;;;68.90;42.70;;;;;;;7.65;58.75;99400.05;428067;1285;142946;-65
2022/05/02 22:33:01;;;;;;;63.80;40.40;;;;;;;7.47;59.12;99402.28;432601;1284;144372;-63
2022/05/02 22:43:07;;;;;;;68.30;44.30;;;;;;;7.28;59.64;99397.71;431069;1285;141817;-61
2022/05/02 22:53:13;;;;;;;59.90;40.10;;;;;;;7.12;59.92;99399.58;426683;1285;142726;-64
2022/05/02 23:03:26;;;;;;;67.90;39.00;;;;;;;6.98;60.72;99401.67;425664;1285;142552;-63
2022/05/02 23:13:35;;;;;;;47.70;29.50;;;;;;;6.81;61.53;99402.23;426323;1287;212789;-63
2022/05/02 23:23:41;;;;;;;60.70;39.00;;;;;;;6.62;61.72;99400.04;428268;1285;142244;-63
2022/05/02 23:33:51;;;;;;;62.40;43.10;;;;;;;6.46;62.21;99395.10;425406;1285;142613;-64
2022/05/02 23:44:06;;;;;;;77.80;54.70;;;;;;;6.35;62.21;99388.50;428365;1285;143161;-63
2022/05/02 23:54:20;;;;;;;69.40;48.30;;;;;;;6.29;62.59;99389.64;427358;1285;142313;-63
